Little Rock, AR

13:24 CDT le 25 août 2016 (GMT -0500)
Democrat-Gazette Downtown | | Change Station

Alt. 371 ft 34.74 °N, 92.27 °W | Updated 29 seconds ago

Mostly Cloudy
Nuageux
93.4 ° F
Paraît 99 ° F
N
0.2
Vent Variable Vent de NE
Gusts 2.5 mph

Aujourd'hui
Haut(e) -- | Bas -- ° F
--% Risque de précip.
Hier
Haut(e) -- | Bas -- ° F
Precip. -- pouce
Pression 30.10 pouce
Visibilité 10.0 Miles terrestres
Nuages Nuageux 3000 ft
Nuageux 25000 ft
indice de chaleur 99 ° F
Point de rosée 70 ° F
Humidité 46%
Précipitations 0.00 pouce
Profondeur de la couche neigeuse Non disponible.
6:37 AM 7:44 PM
Dernier quartier, 43% visible
METAR KLIT 251753Z 19004KT 10SM BKN030TCU BKN250 34/23 A3010 RMK AO2 SLP191 TCU ALQDS T03390228 10344 20250 58009
Pression 30.10 pouce
Visibilité 10.0 Miles terrestres
Nuages Nuageux 3000 ft
Nuageux 25000 ft
indice de chaleur 99 ° F
Point de rosée 70 ° F
Humidité 46%
Précipitations 0.00 pouce
Profondeur de la couche neigeuse Non disponible.
6:37 AM 7:44 PM
Dernier quartier, 43% visible
METAR KLIT 251753Z 19004KT 10SM BKN030TCU BKN250 34/23 A3010 RMK AO2 SLP191 TCU ALQDS T03390228 10344 20250 58009
A tropical disturbance pushing toward the Bahamas, is expected to develop into a tropical depression or storm, and will likely target Florida and the Gulf Coast this weekend into next week.

Right now, the disturbance remains a broad area of low pressure pushing through the Dominican Republic and Haiti, headed toward the southeast Bahamas. Rainfall totals over 3 inches (with locally higher amounts) are expected in Hispañiola, particularly over elevated terrain.

10-Day Weather Forecast

Almanac

Astronomie

Aug. 25, 2016 Lever Coucher
Temps réel
Crépuscule civil
Crépuscule nautique
Crépuscule astronomique
Lune
Durée de lumière visible
Longueur du jour
Tomorrow will be .
, % of the Moon is Illuminated

Extrêmes aujourd'hui

State Highs State Lows

Community

WunderPhotos

Upload Photos

1,934,890 Photos téléchargées !

WunderBlog® & News

Nearby

Qualité de l'air

  Qualité de l'air Indice de la qualité de l'air Polluant
Not available.

Épaisseur de neige

Station Depth Altitude

Activité sismique

Ville Distance Mag. Time & Date
Minimum magnitude displayed is 2.5.

Températures des eaux côtières

Lieu Température

Stations

Stations météo à proximité

Emplacement de la station Température Refroidissement éolien Point de rosée Humidité Vent Precip. Alt. Mise à jour Type
                   

Watches & Warnings

There are currently no watches in effect.